sensor_id;sensor_type;location;lat;lon;timestamp;pressure;altitude;pressure_sealevel;temperature;humidity
38558;BME280;24333;42.626;23.308;2022-07-31T00:07:08;92156.81;;;17.52;100.00
38558;BME280;24333;42.626;23.308;2022-07-31T00:09:36;92142.38;;;17.44;100.00
38558;BME280;24333;42.626;23.308;2022-07-31T00:12:03;92159.88;;;17.57;100.00
38558;BME280;24333;42.626;23.308;2022-07-31T00:14:29;92152.38;;;17.58;100.00
38558;BME280;24333;42.626;23.308;2022-07-31T00:16:55;92144.53;;;17.56;100.00
38558;BME280;24333;42.626;23.308;2022-07-31T00:34:59;92187.16;;;17.00;100.00
38558;BME280;24333;42.626;23.308;2022-07-31T00:37:26;92176.72;;;16.84;100.00
38558;BME280;24333;42.626;23.308;2022-07-31T00:39:51;92174.56;;;16.72;100.00
38558;BME280;24333;42.626;23.308;2022-07-31T00:42:23;92179.34;;;16.68;100.00
38558;BME280;24333;42.626;23.308;2022-07-31T00:44:49;92179.00;;;16.62;100.00
38558;BME280;24333;42.626;23.308;2022-07-31T00:47:16;92186.91;;;16.60;100.00
38558;BME280;24333;42.626;23.308;2022-07-31T01:06:07;92171.78;;;16.13;100.00
38558;BME280;24333;42.626;23.308;2022-07-31T01:08:34;92190.59;;;16.15;100.00
38558;BME280;24333;42.626;23.308;2022-07-31T01:14:01;92190.28;;;16.09;100.00
38558;BME280;24333;42.626;23.308;2022-07-31T01:16:30;92213.44;;;16.08;100.00
38558;BME280;24333;42.626;23.308;2022-07-31T01:19:21;92204.09;;;16.02;100.00
38558;BME280;24333;42.626;23.308;2022-07-31T01:22:00;92200.16;;;16.03;100.00
38558;BME280;24333;42.626;23.308;2022-07-31T01:27:29;92193.59;;;15.93;100.00
38558;BME280;24333;42.626;23.308;2022-07-31T01:30:21;92192.81;;;15.93;100.00
38558;BME280;24333;42.626;23.308;2022-07-31T01:33:11;92199.50;;;15.92;100.00
38558;BME280;24333;42.626;23.308;2022-07-31T01:35:42;92196.81;;;15.84;100.00
38558;BME280;24333;42.626;23.308;2022-07-31T01:38:24;92181.53;;;15.80;100.00
38558;BME280;24333;42.626;23.308;2022-07-31T01:41:01;92193.31;;;15.80;100.00
38558;BME280;24333;42.626;23.308;2022-07-31T01:43:38;92179.22;;;15.74;100.00
38558;BME280;24333;42.626;23.308;2022-07-31T01:46:04;92190.97;;;15.79;100.00
38558;BME280;24333;42.626;23.308;2022-07-31T02:25:35;92190.88;;;15.86;100.00
38558;BME280;24333;42.626;23.308;2022-07-31T02:28:05;92175.22;;;15.83;100.00
38558;BME280;24333;42.626;23.308;2022-07-31T02:30:32;92182.25;;;15.87;100.00
38558;BME280;24333;42.626;23.308;2022-07-31T02:32:59;92182.63;;;15.89;100.00
38558;BME280;24333;42.626;23.308;2022-07-31T02:35:26;92184.59;;;15.89;100.00
38558;BME280;24333;42.626;23.308;2022-07-31T02:37:53;92183.06;;;15.84;100.00
38558;BME280;24333;42.626;23.308;2022-07-31T02:40:39;92195.59;;;15.89;100.00
38558;BME280;24333;42.626;23.308;2022-07-31T02:43:15;92190.88;;;15.89;100.00
38558;BME280;24333;42.626;23.308;2022-07-31T02:45:42;92196.34;;;15.93;100.00
38558;BME280;24333;42.626;23.308;2022-07-31T02:48:08;92190.84;;;15.93;100.00
38558;BME280;24333;42.626;23.308;2022-07-31T02:50:34;92200.50;;;16.09;100.00
38558;BME280;24333;42.626;23.308;2022-07-31T02:53:00;92202.75;;;16.17;100.00
38558;BME280;24333;42.626;23.308;2022-07-31T04:01:52;92199.56;;;16.85;100.00
38558;BME280;24333;42.626;23.308;2022-07-31T04:04:18;92213.56;;;16.94;100.00
38558;BME280;24333;42.626;23.308;2022-07-31T04:06:44;92222.56;;;17.02;100.00
38558;BME280;24333;42.626;23.308;2022-07-31T04:11:50;92232.41;;;16.96;100.00
38558;BME280;24333;42.626;23.308;2022-07-31T04:14:21;92230.75;;;16.74;100.00
38558;BME280;24333;42.626;23.308;2022-07-31T04:16:48;92208.22;;;16.52;100.00
38558;BME280;24333;42.626;23.308;2022-07-31T04:27:00;92230.47;;;16.34;100.00
38558;BME280;24333;42.626;23.308;2022-07-31T04:29:46;92219.78;;;16.40;100.00
38558;BME280;24333;42.626;23.308;2022-07-31T04:32:14;92219.13;;;16.59;100.00
38558;BME280;24333;42.626;23.308;2022-07-31T04:34:40;92208.00;;;16.70;100.00
38558;BME280;24333;42.626;23.308;2022-07-31T04:37:31;92225.22;;;17.05;100.00
38558;BME280;24333;42.626;23.308;2022-07-31T04:40:00;92214.84;;;17.17;100.00
38558;BME280;24333;42.626;23.308;2022-07-31T04:42:29;92188.19;;;17.10;100.00
38558;BME280;24333;42.626;23.308;2022-07-31T04:44:55;92203.84;;;17.41;100.00
38558;BME280;24333;42.626;23.308;2022-07-31T04:48:05;92186.38;;;17.51;100.00
38558;BME280;24333;42.626;23.308;2022-07-31T05:25:28;92241.66;;;17.88;100.00
38558;BME280;24333;42.626;23.308;2022-07-31T05:27:54;92226.75;;;17.61;100.00
38558;BME280;24333;42.626;23.308;2022-07-31T05:30:20;92215.53;;;17.48;100.00
38558;BME280;24333;42.626;23.308;2022-07-31T05:32:52;92249.16;;;17.63;100.00
38558;BME280;24333;42.626;23.308;2022-07-31T05:35:18;92206.47;;;17.48;100.00
38558;BME280;24333;42.626;23.308;2022-07-31T05:37:44;92240.34;;;17.72;100.00
38558;BME280;24333;42.626;23.308;2022-07-31T05:40:14;92219.44;;;17.51;100.00
38558;BME280;24333;42.626;23.308;2022-07-31T05:42:44;92221.34;;;17.54;100.00
38558;BME280;24333;42.626;23.308;2022-07-31T05:45:10;92209.13;;;17.55;100.00
38558;BME280;24333;42.626;23.308;2022-07-31T05:47:36;92220.53;;;17.57;100.00
38558;BME280;24333;42.626;23.308;2022-07-31T05:50:04;92213.44;;;17.56;100.00
38558;BME280;24333;42.626;23.308;2022-07-31T05:52:56;92233.38;;;17.88;100.00
38558;BME280;24333;42.626;23.308;2022-07-31T05:55:22;92232.31;;;18.05;100.00
38558;BME280;24333;42.626;23.308;2022-07-31T05:57:47;92216.69;;;18.19;100.00
38558;BME280;24333;42.626;23.308;2022-07-31T06:00:14;92227.41;;;18.37;100.00
38558;BME280;24333;42.626;23.308;2022-07-31T06:14:01;92214.81;;;18.93;100.00
38558;BME280;24333;42.626;23.308;2022-07-31T06:55:21;92209.69;;;18.55;100.00
38558;BME280;24333;42.626;23.308;2022-07-31T06:57:48;92187.69;;;18.51;100.00
38558;BME280;24333;42.626;23.308;2022-07-31T07:00:21;92186.13;;;18.50;100.00
38558;BME280;24333;42.626;23.308;2022-07-31T07:24:20;92213.94;;;19.33;100.00
38558;BME280;24333;42.626;23.308;2022-07-31T07:26:48;92212.75;;;19.50;100.00
38558;BME280;24333;42.626;23.308;2022-07-31T07:29:14;92216.09;;;19.75;100.00
38558;BME280;24333;42.626;23.308;2022-07-31T07:35:04;92235.81;;;20.10;100.00
38558;BME280;24333;42.626;23.308;2022-07-31T07:37:31;92239.16;;;20.18;100.00
38558;BME280;24333;42.626;23.308;2022-07-31T07:39:57;92241.75;;;20.08;100.00
38558;BME280;24333;42.626;23.308;2022-07-31T07:42:22;92244.72;;;20.01;100.00
38558;BME280;24333;42.626;23.308;2022-07-31T07:44:48;92229.19;;;20.20;100.00
38558;BME280;24333;42.626;23.308;2022-07-31T07:47:13;92234.72;;;20.37;100.00
38558;BME280;24333;42.626;23.308;2022-07-31T07:49:47;92235.84;;;20.52;100.00
38558;BME280;24333;42.626;23.308;2022-07-31T07:52:13;92247.13;;;20.45;100.00
38558;BME280;24333;42.626;23.308;2022-07-31T07:54:39;92232.75;;;20.50;100.00
38558;BME280;24333;42.626;23.308;2022-07-31T07:57:05;92233.84;;;20.40;100.00
38558;BME280;24333;42.626;23.308;2022-07-31T07:59:30;92239.78;;;20.39;100.00
38558;BME280;24333;42.626;23.308;2022-07-31T08:02:08;92244.16;;;20.52;100.00
38558;BME280;24333;42.626;23.308;2022-07-31T08:44:55;92291.75;;;19.85;100.00
38558;BME280;24333;42.626;23.308;2022-07-31T08:47:22;92281.03;;;19.87;100.00
38558;BME280;24333;42.626;23.308;2022-07-31T11:35:09;92197.91;;;24.30;73.28
38558;BME280;24333;42.626;23.308;2022-07-31T11:37:39;92206.56;;;24.69;73.20
38558;BME280;24333;42.626;23.308;2022-07-31T11:40:15;92208.41;;;24.53;70.70
38558;BME280;24333;42.626;23.308;2022-07-31T11:42:42;92191.41;;;24.61;71.18
38558;BME280;24333;42.626;23.308;2022-07-31T11:45:11;92181.47;;;24.78;69.98
38558;BME280;24333;42.626;23.308;2022-07-31T11:47:57;92200.06;;;24.81;69.37
38558;BME280;24333;42.626;23.308;2022-07-31T11:50:24;92184.28;;;24.41;71.43
38558;BME280;24333;42.626;23.308;2022-07-31T11:56:00;92171.50;;;23.75;74.58
38558;BME280;24333;42.626;23.308;2022-07-31T11:58:27;92181.78;;;23.46;76.66
38558;BME280;24333;42.626;23.308;2022-07-31T12:00:58;92176.25;;;23.65;75.55
38558;BME280;24333;42.626;23.308;2022-07-31T12:03:36;92185.91;;;23.92;75.85
38558;BME280;24333;42.626;23.308;2022-07-31T12:09:23;92179.84;;;23.75;78.70
38558;BME280;24333;42.626;23.308;2022-07-31T12:11:49;92177.34;;;23.58;79.41
38558;BME280;24333;42.626;23.308;2022-07-31T13:19:21;92147.47;;;23.08;72.41
38558;BME280;24333;42.626;23.308;2022-07-31T13:21:49;92140.22;;;23.11;73.63
38558;BME280;24333;42.626;23.308;2022-07-31T13:24:14;92131.47;;;23.22;73.12
38558;BME280;24333;42.626;23.308;2022-07-31T13:26:40;92141.41;;;23.32;70.51
38558;BME280;24333;42.626;23.308;2022-07-31T13:29:09;92141.28;;;23.36;70.40
38558;BME280;24333;42.626;23.308;2022-07-31T13:31:44;92124.69;;;23.23;67.96
38558;BME280;24333;42.626;23.308;2022-07-31T14:01:04;92135.44;;;23.11;67.57
38558;BME280;24333;42.626;23.308;2022-07-31T14:03:30;92127.53;;;23.01;69.17
38558;BME280;24333;42.626;23.308;2022-07-31T14:06:03;92121.66;;;22.99;68.91
38558;BME280;24333;42.626;23.308;2022-07-31T14:15:06;92129.28;;;23.17;68.61
38558;BME280;24333;42.626;23.308;2022-07-31T14:17:38;92116.88;;;23.08;67.49
38558;BME280;24333;42.626;23.308;2022-07-31T14:20:11;92128.91;;;22.96;67.49
38558;BME280;24333;42.626;23.308;2022-07-31T15:04:40;92123.41;;;22.51;62.35
38558;BME280;24333;42.626;23.308;2022-07-31T15:09:51;92122.50;;;22.55;64.06
38558;BME280;24333;42.626;23.308;2022-07-31T15:12:17;92112.91;;;22.46;63.47
38558;BME280;24333;42.626;23.308;2022-07-31T16:29:34;92107.72;;;22.13;66.60
38558;BME280;24333;42.626;23.308;2022-07-31T16:32:01;92109.66;;;22.26;69.60
38558;BME280;24333;42.626;23.308;2022-07-31T16:34:26;92104.63;;;22.33;70.01
38558;BME280;24333;42.626;23.308;2022-07-31T17:00:22;92120.09;;;21.64;78.56
38558;BME280;24333;42.626;23.308;2022-07-31T17:02:49;92121.88;;;21.58;78.33
38558;BME280;24333;42.626;23.308;2022-07-31T17:05:15;92134.94;;;21.57;78.95
38558;BME280;24333;42.626;23.308;2022-07-31T17:11:02;92131.22;;;21.38;82.21
38558;BME280;24333;42.626;23.308;2022-07-31T17:13:28;92144.53;;;21.30;82.22
38558;BME280;24333;42.626;23.308;2022-07-31T17:15:54;92132.34;;;21.15;82.73
38558;BME280;24333;42.626;23.308;2022-07-31T17:18:19;92134.81;;;21.00;80.50
38558;BME280;24333;42.626;23.308;2022-07-31T17:20:49;92130.91;;;20.97;82.52
38558;BME280;24333;42.626;23.308;2022-07-31T17:23:15;92142.56;;;20.92;84.59
38558;BME280;24333;42.626;23.308;2022-07-31T17:26:04;92137.56;;;20.87;85.42
38558;BME280;24333;42.626;23.308;2022-07-31T17:28:50;92130.31;;;20.63;83.02
38558;BME280;24333;42.626;23.308;2022-07-31T17:31:17;92132.19;;;20.54;84.45
38558;BME280;24333;42.626;23.308;2022-07-31T17:33:43;92135.94;;;20.47;84.50
38558;BME280;24333;42.626;23.308;2022-07-31T18:18:38;92162.97;;;19.67;88.54
38558;BME280;24333;42.626;23.308;2022-07-31T18:21:05;92185.69;;;19.75;88.13
38558;BME280;24333;42.626;23.308;2022-07-31T18:23:31;92162.34;;;19.59;90.11
38558;BME280;24333;42.626;23.308;2022-07-31T18:25:58;92171.38;;;19.63;90.75
38558;BME280;24333;42.626;23.308;2022-07-31T18:28:33;92164.88;;;19.54;90.92
38558;BME280;24333;42.626;23.308;2022-07-31T19:22:57;92205.75;;;18.92;93.08
38558;BME280;24333;42.626;23.308;2022-07-31T19:25:26;92224.19;;;18.99;92.86
38558;BME280;24333;42.626;23.308;2022-07-31T19:28:01;92224.31;;;18.92;92.02
38558;BME280;24333;42.626;23.308;2022-07-31T19:30:36;92244.63;;;19.02;91.70
38558;BME280;24333;42.626;23.308;2022-07-31T19:33:14;92234.84;;;18.97;92.31
38558;BME280;24333;42.626;23.308;2022-07-31T19:41:32;92256.16;;;18.97;88.03
38558;BME280;24333;42.626;23.308;2022-07-31T19:43:59;92235.16;;;18.83;86.52
38558;BME280;24333;42.626;23.308;2022-07-31T19:51:35;92271.97;;;18.96;88.21
38558;BME280;24333;42.626;23.308;2022-07-31T19:54:02;92253.13;;;18.91;88.64
38558;BME280;24333;42.626;23.308;2022-07-31T19:56:28;92271.34;;;18.88;88.19
38558;BME280;24333;42.626;23.308;2022-07-31T19:58:53;92262.41;;;18.81;88.65
38558;BME280;24333;42.626;23.308;2022-07-31T20:01:19;92268.63;;;18.85;88.46
38558;BME280;24333;42.626;23.308;2022-07-31T20:35:15;92249.06;;;18.59;90.62
38558;BME280;24333;42.626;23.308;2022-07-31T20:37:40;92272.13;;;18.69;90.17
38558;BME280;24333;42.626;23.308;2022-07-31T20:40:26;92276.16;;;18.64;88.40
38558;BME280;24333;42.626;23.308;2022-07-31T20:42:54;92254.66;;;18.55;88.25
38558;BME280;24333;42.626;23.308;2022-07-31T20:45:21;92252.16;;;18.61;88.74
38558;BME280;24333;42.626;23.308;2022-07-31T21:26:37;92237.28;;;18.34;70.83
38558;BME280;24333;42.626;23.308;2022-07-31T21:29:16;92250.13;;;18.45;70.83
38558;BME280;24333;42.626;23.308;2022-07-31T21:31:57;92232.56;;;18.35;66.27
38558;BME280;24333;42.626;23.308;2022-07-31T21:34:28;92241.53;;;18.39;66.39
38558;BME280;24333;42.626;23.308;2022-07-31T21:40:29;92243.09;;;18.40;66.34
38558;BME280;24333;42.626;23.308;2022-07-31T21:42:58;92248.47;;;18.47;66.12
38558;BME280;24333;42.626;23.308;2022-07-31T21:45:26;92231.75;;;18.34;66.75
38558;BME280;24333;42.626;23.308;2022-07-31T21:47:52;92233.75;;;18.34;66.07
38558;BME280;24333;42.626;23.308;2022-07-31T21:50:20;92239.28;;;18.34;64.48
38558;BME280;24333;42.626;23.308;2022-07-31T22:44:10;92266.53;;;18.52;71.46
38558;BME280;24333;42.626;23.308;2022-07-31T22:46:36;92240.53;;;18.29;73.52
38558;BME280;24333;42.626;23.308;2022-07-31T23:05:07;92247.84;;;17.96;78.56
38558;BME280;24333;42.626;23.308;2022-07-31T23:07:33;92252.63;;;17.91;79.30
38558;BME280;24333;42.626;23.308;2022-07-31T23:09:59;92246.34;;;17.91;80.23
38558;BME280;24333;42.626;23.308;2022-07-31T23:12:25;92257.78;;;17.89;79.05
38558;BME280;24333;42.626;23.308;2022-07-31T23:14:51;92241.84;;;17.77;80.04
38558;BME280;24333;42.626;23.308;2022-07-31T23:25:09;92270.38;;;17.67;79.37
38558;BME280;24333;42.626;23.308;2022-07-31T23:27:35;92251.31;;;17.52;78.68
38558;BME280;24333;42.626;23.308;2022-07-31T23:30:02;92263.47;;;17.55;77.96
38558;BME280;24333;42.626;23.308;2022-07-31T23:39:00;92235.47;;;17.32;79.45
38558;BME280;24333;42.626;23.308;2022-07-31T23:41:27;92259.63;;;17.48;79.90
38558;BME280;24333;42.626;23.308;2022-07-31T23:44:11;92254.28;;;17.38;79.50
38558;BME280;24333;42.626;23.308;2022-07-31T23:46:38;92239.91;;;17.26;76.78
38558;BME280;24333;42.626;23.308;2022-07-31T23:49:04;92266.03;;;17.42;77.58
38558;BME280;24333;42.626;23.308;2022-07-31T23:54:05;92228.00;;;17.05;77.09
38558;BME280;24333;42.626;23.308;2022-07-31T23:56:35;92261.94;;;17.26;74.94
38558;BME280;24333;42.626;23.308;2022-07-31T23:59:01;92238.91;;;17.13;76.72
